sensor_id;sensor_type;location;lat;lon;timestamp;temperature;humidity
11079;DHT22;5592;49.234;7.268;2023-06-22T00:00:27;20.20;99.90
11079;DHT22;5592;49.234;7.268;2023-06-22T00:02:53;20.20;99.90
11079;DHT22;5592;49.234;7.268;2023-06-22T00:05:18;20.10;99.90
11079;DHT22;5592;49.234;7.268;2023-06-22T00:07:44;20.00;99.90
11079;DHT22;5592;49.234;7.268;2023-06-22T00:10:09;20.00;99.90
11079;DHT22;5592;49.234;7.268;2023-06-22T00:12:35;19.90;99.90
11079;DHT22;5592;49.234;7.268;2023-06-22T00:15:01;19.90;99.90
11079;DHT22;5592;49.234;7.268;2023-06-22T00:17:26;19.90;99.90
11079;DHT22;5592;49.234;7.268;2023-06-22T00:19:52;19.90;99.90
11079;DHT22;5592;49.234;7.268;2023-06-22T00:22:19;19.80;99.90
11079;DHT22;5592;49.234;7.268;2023-06-22T00:24:54;19.80;99.90
11079;DHT22;5592;49.234;7.268;2023-06-22T00:27:19;19.70;99.90
11079;DHT22;5592;49.234;7.268;2023-06-22T00:29:45;19.70;99.90
11079;DHT22;5592;49.234;7.268;2023-06-22T00:32:10;19.60;99.90
11079;DHT22;5592;49.234;7.268;2023-06-22T00:34:36;19.60;99.90
11079;DHT22;5592;49.234;7.268;2023-06-22T00:37:08;19.70;99.90
11079;DHT22;5592;49.234;7.268;2023-06-22T00:39:34;19.70;99.90
11079;DHT22;5592;49.234;7.268;2023-06-22T00:42:00;19.70;99.90
11079;DHT22;5592;49.234;7.268;2023-06-22T00:44:26;19.60;99.90
11079;DHT22;5592;49.234;7.268;2023-06-22T00:46:52;19.50;99.90
11079;DHT22;5592;49.234;7.268;2023-06-22T00:49:18;19.40;99.90
11079;DHT22;5592;49.234;7.268;2023-06-22T00:51:44;19.40;99.90
11079;DHT22;5592;49.234;7.268;2023-06-22T00:54:11;19.40;99.90
11079;DHT22;5592;49.234;7.268;2023-06-22T00:56:41;19.30;99.90
11079;DHT22;5592;49.234;7.268;2023-06-22T00:59:06;19.30;99.90
11079;DHT22;5592;49.234;7.268;2023-06-22T01:01:32;19.10;99.90
11079;DHT22;5592;49.234;7.268;2023-06-22T01:03:59;19.10;99.90
11079;DHT22;5592;49.234;7.268;2023-06-22T01:06:35;19.10;99.90
11079;DHT22;5592;49.234;7.268;2023-06-22T01:09:15;19.00;99.90
11079;DHT22;5592;49.234;7.268;2023-06-22T01:11:47;18.90;99.90
11079;DHT22;5592;49.234;7.268;2023-06-22T01:14:47;18.90;99.90
11079;DHT22;5592;49.234;7.268;2023-06-22T01:17:15;18.80;99.90
11079;DHT22;5592;49.234;7.268;2023-06-22T01:19:54;18.80;99.90
11079;DHT22;5592;49.234;7.268;2023-06-22T01:22:24;18.80;99.90
11079;DHT22;5592;49.234;7.268;2023-06-22T01:27:54;18.80;99.90
11079;DHT22;5592;49.234;7.268;2023-06-22T01:30:19;18.80;99.90
11079;DHT22;5592;49.234;7.268;2023-06-22T01:32:44;18.80;99.90
11079;DHT22;5592;49.234;7.268;2023-06-22T01:35:12;18.80;99.90
11079;DHT22;5592;49.234;7.268;2023-06-22T01:37:38;18.70;99.90
11079;DHT22;5592;49.234;7.268;2023-06-22T01:40:05;18.70;99.90
11079;DHT22;5592;49.234;7.268;2023-06-22T01:42:34;18.60;99.90
11079;DHT22;5592;49.234;7.268;2023-06-22T01:45:00;18.60;99.90
11079;DHT22;5592;49.234;7.268;2023-06-22T01:47:27;18.60;99.90
11079;DHT22;5592;49.234;7.268;2023-06-22T01:49:53;18.50;99.90
11079;DHT22;5592;49.234;7.268;2023-06-22T01:52:19;18.50;99.90
11079;DHT22;5592;49.234;7.268;2023-06-22T01:54:46;18.40;99.90
11079;DHT22;5592;49.234;7.268;2023-06-22T01:57:12;18.30;99.90
11079;DHT22;5592;49.234;7.268;2023-06-22T02:02:09;18.30;99.90
11079;DHT22;5592;49.234;7.268;2023-06-22T02:04:46;18.20;99.90
11079;DHT22;5592;49.234;7.268;2023-06-22T02:07:15;18.10;99.90
11079;DHT22;5592;49.234;7.268;2023-06-22T02:09:44;18.00;99.90
11079;DHT22;5592;49.234;7.268;2023-06-22T02:12:17;18.00;99.90
11079;DHT22;5592;49.234;7.268;2023-06-22T02:14:44;18.00;99.90
11079;DHT22;5592;49.234;7.268;2023-06-22T02:17:12;18.00;99.90
11079;DHT22;5592;49.234;7.268;2023-06-22T02:19:39;18.00;99.90
11079;DHT22;5592;49.234;7.268;2023-06-22T02:22:06;18.10;99.90
11079;DHT22;5592;49.234;7.268;2023-06-22T02:24:31;18.10;99.90
11079;DHT22;5592;49.234;7.268;2023-06-22T02:26:59;18.00;99.90
11079;DHT22;5592;49.234;7.268;2023-06-22T02:29:25;18.10;99.90
11079;DHT22;5592;49.234;7.268;2023-06-22T02:31:52;18.20;99.90
11079;DHT22;5592;49.234;7.268;2023-06-22T02:34:18;18.10;99.90
11079;DHT22;5592;49.234;7.268;2023-06-22T02:36:48;18.10;99.90
11079;DHT22;5592;49.234;7.268;2023-06-22T02:39:20;18.00;99.90
11079;DHT22;5592;49.234;7.268;2023-06-22T02:41:48;17.90;99.90
11079;DHT22;5592;49.234;7.268;2023-06-22T02:44:14;17.90;99.90
11079;DHT22;5592;49.234;7.268;2023-06-22T02:46:39;17.90;99.90
11079;DHT22;5592;49.234;7.268;2023-06-22T02:49:05;18.00;99.90
11079;DHT22;5592;49.234;7.268;2023-06-22T02:51:33;18.00;99.90
11079;DHT22;5592;49.234;7.268;2023-06-22T02:54:00;18.10;99.90
11079;DHT22;5592;49.234;7.268;2023-06-22T02:56:26;18.10;99.90
11079;DHT22;5592;49.234;7.268;2023-06-22T02:58:51;18.10;99.90
11079;DHT22;5592;49.234;7.268;2023-06-22T03:01:17;18.10;99.90
11079;DHT22;5592;49.234;7.268;2023-06-22T03:03:49;18.00;99.90
11079;DHT22;5592;49.234;7.268;2023-06-22T03:06:15;18.00;99.90
11079;DHT22;5592;49.234;7.268;2023-06-22T03:08:41;18.10;99.90
11079;DHT22;5592;49.234;7.268;2023-06-22T03:11:07;18.10;99.90
11079;DHT22;5592;49.234;7.268;2023-06-22T03:13:33;18.00;99.90
11079;DHT22;5592;49.234;7.268;2023-06-22T03:15:59;17.90;99.90
11079;DHT22;5592;49.234;7.268;2023-06-22T03:18:24;17.90;99.90
11079;DHT22;5592;49.234;7.268;2023-06-22T03:20:50;17.90;99.90
11079;DHT22;5592;49.234;7.268;2023-06-22T03:23:15;17.90;99.90
11079;DHT22;5592;49.234;7.268;2023-06-22T03:25:42;17.90;99.90
11079;DHT22;5592;49.234;7.268;2023-06-22T03:28:10;17.80;99.90
11079;DHT22;5592;49.234;7.268;2023-06-22T03:30:35;17.80;99.90
11079;DHT22;5592;49.234;7.268;2023-06-22T03:33:01;17.70;99.90
11079;DHT22;5592;49.234;7.268;2023-06-22T03:35:27;17.70;99.90
11079;DHT22;5592;49.234;7.268;2023-06-22T03:37:52;17.60;99.90
11079;DHT22;5592;49.234;7.268;2023-06-22T03:40:18;17.60;99.90
11079;DHT22;5592;49.234;7.268;2023-06-22T03:42:44;17.70;99.90
11079;DHT22;5592;49.234;7.268;2023-06-22T03:45:10;17.70;99.90
11079;DHT22;5592;49.234;7.268;2023-06-22T03:47:35;17.70;99.90
11079;DHT22;5592;49.234;7.268;2023-06-22T03:50:01;17.70;99.90
11079;DHT22;5592;49.234;7.268;2023-06-22T03:52:29;17.70;99.90
11079;DHT22;5592;49.234;7.268;2023-06-22T03:54:55;17.60;99.90
11079;DHT22;5592;49.234;7.268;2023-06-22T03:57:20;17.60;99.90
11079;DHT22;5592;49.234;7.268;2023-06-22T03:59:46;17.70;99.90
11079;DHT22;5592;49.234;7.268;2023-06-22T04:02:12;17.70;99.90
11079;DHT22;5592;49.234;7.268;2023-06-22T04:04:37;17.70;99.90
11079;DHT22;5592;49.234;7.268;2023-06-22T04:07:04;17.70;99.90
11079;DHT22;5592;49.234;7.268;2023-06-22T04:09:30;17.70;99.90
11079;DHT22;5592;49.234;7.268;2023-06-22T04:11:56;17.70;99.90
11079;DHT22;5592;49.234;7.268;2023-06-22T04:14:21;17.70;99.90
11079;DHT22;5592;49.234;7.268;2023-06-22T04:16:48;17.70;99.90
11079;DHT22;5592;49.234;7.268;2023-06-22T04:19:13;17.80;99.90
11079;DHT22;5592;49.234;7.268;2023-06-22T04:21:43;17.90;99.90
11079;DHT22;5592;49.234;7.268;2023-06-22T04:24:10;18.00;99.90
11079;DHT22;5592;49.234;7.268;2023-06-22T04:26:35;18.20;99.90
11079;DHT22;5592;49.234;7.268;2023-06-22T04:29:03;18.40;99.90
11079;DHT22;5592;49.234;7.268;2023-06-22T04:31:31;18.50;99.90
11079;DHT22;5592;49.234;7.268;2023-06-22T04:33:58;18.70;99.90
11079;DHT22;5592;49.234;7.268;2023-06-22T04:36:31;18.90;99.90
11079;DHT22;5592;49.234;7.268;2023-06-22T04:39:06;19.10;99.90
11079;DHT22;5592;49.234;7.268;2023-06-22T04:41:32;19.30;99.90
11079;DHT22;5592;49.234;7.268;2023-06-22T04:44:14;19.40;99.90
11079;DHT22;5592;49.234;7.268;2023-06-22T04:46:50;19.60;99.90
11079;DHT22;5592;49.234;7.268;2023-06-22T04:49:20;19.80;99.90
11079;DHT22;5592;49.234;7.268;2023-06-22T04:51:47;20.00;99.90
11079;DHT22;5592;49.234;7.268;2023-06-22T04:54:13;20.20;99.90
11079;DHT22;5592;49.234;7.268;2023-06-22T04:56:38;20.40;99.90
11079;DHT22;5592;49.234;7.268;2023-06-22T04:59:06;20.60;99.90
11079;DHT22;5592;49.234;7.268;2023-06-22T05:01:32;20.90;99.90
11079;DHT22;5592;49.234;7.268;2023-06-22T05:03:58;21.20;99.90
11079;DHT22;5592;49.234;7.268;2023-06-22T05:06:26;21.70;99.90
11079;DHT22;5592;49.234;7.268;2023-06-22T05:08:57;22.30;99.90
11079;DHT22;5592;49.234;7.268;2023-06-22T05:11:29;23.00;99.90
11079;DHT22;5592;49.234;7.268;2023-06-22T05:13:55;23.80;99.90
11079;DHT22;5592;49.234;7.268;2023-06-22T05:16:21;24.60;99.90
11079;DHT22;5592;49.234;7.268;2023-06-22T05:18:52;25.40;99.90
11079;DHT22;5592;49.234;7.268;2023-06-22T05:21:18;26.10;99.90
11079;DHT22;5592;49.234;7.268;2023-06-22T05:23:44;26.80;99.90
11079;DHT22;5592;49.234;7.268;2023-06-22T05:26:10;27.50;99.90
11079;DHT22;5592;49.234;7.268;2023-06-22T05:28:35;28.00;99.90
11079;DHT22;5592;49.234;7.268;2023-06-22T05:31:01;28.00;99.90
11079;DHT22;5592;49.234;7.268;2023-06-22T05:33:26;28.10;99.90
11079;DHT22;5592;49.234;7.268;2023-06-22T05:35:52;28.20;99.90
11079;DHT22;5592;49.234;7.268;2023-06-22T05:38:21;28.00;99.90
11079;DHT22;5592;49.234;7.268;2023-06-22T05:40:46;28.10;99.90
11079;DHT22;5592;49.234;7.268;2023-06-22T05:43:12;27.90;99.90
11079;DHT22;5592;49.234;7.268;2023-06-22T05:45:38;28.10;99.90
11079;DHT22;5592;49.234;7.268;2023-06-22T05:48:03;28.40;99.90
11079;DHT22;5592;49.234;7.268;2023-06-22T05:50:29;28.50;99.90
11079;DHT22;5592;49.234;7.268;2023-06-22T05:52:55;28.90;99.90
11079;DHT22;5592;49.234;7.268;2023-06-22T05:55:20;29.30;99.90
11079;DHT22;5592;49.234;7.268;2023-06-22T05:57:46;29.70;99.90
11079;DHT22;5592;49.234;7.268;2023-06-22T06:00:12;30.30;99.90
11079;DHT22;5592;49.234;7.268;2023-06-22T06:02:38;30.70;99.90
11079;DHT22;5592;49.234;7.268;2023-06-22T06:05:10;31.30;99.90
11079;DHT22;5592;49.234;7.268;2023-06-22T06:07:36;31.70;99.90
11079;DHT22;5592;49.234;7.268;2023-06-22T06:10:03;32.10;99.90
11079;DHT22;5592;49.234;7.268;2023-06-22T06:12:30;32.30;99.90
11079;DHT22;5592;49.234;7.268;2023-06-22T06:14:56;32.70;99.90
11079;DHT22;5592;49.234;7.268;2023-06-22T06:17:22;33.00;99.90
11079;DHT22;5592;49.234;7.268;2023-06-22T06:19:47;32.70;99.90
11079;DHT22;5592;49.234;7.268;2023-06-22T06:22:13;31.90;99.90
11079;DHT22;5592;49.234;7.268;2023-06-22T06:24:39;31.20;99.90
11079;DHT22;5592;49.234;7.268;2023-06-22T06:27:04;30.70;99.90
11079;DHT22;5592;49.234;7.268;2023-06-22T06:29:31;31.30;99.90
11079;DHT22;5592;49.234;7.268;2023-06-22T06:31:56;31.90;99.90
11079;DHT22;5592;49.234;7.268;2023-06-22T06:34:22;32.60;99.90
11079;DHT22;5592;49.234;7.268;2023-06-22T06:36:48;33.10;99.90
11079;DHT22;5592;49.234;7.268;2023-06-22T06:39:13;34.00;99.90
11079;DHT22;5592;49.234;7.268;2023-06-22T06:41:39;34.40;99.90
11079;DHT22;5592;49.234;7.268;2023-06-22T06:44:05;34.80;99.90
11079;DHT22;5592;49.234;7.268;2023-06-22T06:46:31;35.10;99.90
11079;DHT22;5592;49.234;7.268;2023-06-22T06:48:57;35.60;99.90
11079;DHT22;5592;49.234;7.268;2023-06-22T06:51:23;35.70;99.90
11079;DHT22;5592;49.234;7.268;2023-06-22T06:53:49;36.00;99.90
11079;DHT22;5592;49.234;7.268;2023-06-22T06:56:14;35.80;99.90
11079;DHT22;5592;49.234;7.268;2023-06-22T06:58:41;35.60;99.90
11079;DHT22;5592;49.234;7.268;2023-06-22T07:01:14;35.70;99.90
11079;DHT22;5592;49.234;7.268;2023-06-22T07:03:39;35.40;99.90
11079;DHT22;5592;49.234;7.268;2023-06-22T07:06:05;35.40;99.90
11079;DHT22;5592;49.234;7.268;2023-06-22T07:08:31;35.40;99.90
11079;DHT22;5592;49.234;7.268;2023-06-22T07:10:56;35.20;99.90
11079;DHT22;5592;49.234;7.268;2023-06-22T07:13:22;35.30;99.90
11079;DHT22;5592;49.234;7.268;2023-06-22T07:15:48;34.80;99.90
11079;DHT22;5592;49.234;7.268;2023-06-22T07:18:13;34.40;99.90
11079;DHT22;5592;49.234;7.268;2023-06-22T07:20:39;35.00;99.90
11079;DHT22;5592;49.234;7.268;2023-06-22T07:23:04;34.90;99.90
11079;DHT22;5592;49.234;7.268;2023-06-22T07:25:30;36.00;99.90
11079;DHT22;5592;49.234;7.268;2023-06-22T07:28:01;37.20;99.90
11079;DHT22;5592;49.234;7.268;2023-06-22T07:30:28;37.60;99.90
11079;DHT22;5592;49.234;7.268;2023-06-22T07:32:57;37.50;99.90
11079;DHT22;5592;49.234;7.268;2023-06-22T07:35:23;36.90;99.90
11079;DHT22;5592;49.234;7.268;2023-06-22T07:37:49;36.20;99.90
11079;DHT22;5592;49.234;7.268;2023-06-22T07:40:15;36.30;99.90
11079;DHT22;5592;49.234;7.268;2023-06-22T07:42:41;36.90;99.90
11079;DHT22;5592;49.234;7.268;2023-06-22T07:45:08;37.30;99.90
11079;DHT22;5592;49.234;7.268;2023-06-22T07:47:34;36.70;99.90
11079;DHT22;5592;49.234;7.268;2023-06-22T07:50:01;36.20;99.90
11079;DHT22;5592;49.234;7.268;2023-06-22T07:55:02;35.00;99.90
11079;DHT22;5592;49.234;7.268;2023-06-22T07:57:28;34.30;99.90
11079;DHT22;5592;49.234;7.268;2023-06-22T08:00:02;34.80;99.90
11079;DHT22;5592;49.234;7.268;2023-06-22T08:02:29;35.30;99.90
11079;DHT22;5592;49.234;7.268;2023-06-22T08:04:57;35.20;99.90
11079;DHT22;5592;49.234;7.268;2023-06-22T08:07:24;34.10;99.90
11079;DHT22;5592;49.234;7.268;2023-06-22T08:09:52;33.50;99.90
11079;DHT22;5592;49.234;7.268;2023-06-22T08:12:19;32.90;99.90
11079;DHT22;5592;49.234;7.268;2023-06-22T08:14:46;32.50;99.90
11079;DHT22;5592;49.234;7.268;2023-06-22T08:17:15;32.10;99.90
11079;DHT22;5592;49.234;7.268;2023-06-22T08:19:44;31.50;99.90
11079;DHT22;5592;49.234;7.268;2023-06-22T08:22:12;30.50;99.90
11079;DHT22;5592;49.234;7.268;2023-06-22T08:24:39;29.80;99.90
11079;DHT22;5592;49.234;7.268;2023-06-22T08:27:07;29.40;99.90
11079;DHT22;5592;49.234;7.268;2023-06-22T08:29:34;29.20;99.90
11079;DHT22;5592;49.234;7.268;2023-06-22T08:32:00;28.90;99.90
11079;DHT22;5592;49.234;7.268;2023-06-22T08:34:31;29.10;99.90
11079;DHT22;5592;49.234;7.268;2023-06-22T08:36:58;29.80;99.90
11079;DHT22;5592;49.234;7.268;2023-06-22T08:39:30;30.70;99.90
11079;DHT22;5592;49.234;7.268;2023-06-22T08:42:04;31.60;99.90
11079;DHT22;5592;49.234;7.268;2023-06-22T08:44:30;31.70;99.90
11079;DHT22;5592;49.234;7.268;2023-06-22T08:46:57;31.90;99.90
11079;DHT22;5592;49.234;7.268;2023-06-22T08:49:23;31.60;99.90
11079;DHT22;5592;49.234;7.268;2023-06-22T08:51:49;32.50;99.90
11079;DHT22;5592;49.234;7.268;2023-06-22T08:54:14;33.90;99.90
11079;DHT22;5592;49.234;7.268;2023-06-22T08:56:41;34.80;99.90
11079;DHT22;5592;49.234;7.268;2023-06-22T08:59:09;36.40;99.90
11079;DHT22;5592;49.234;7.268;2023-06-22T09:01:34;37.10;99.90
11079;DHT22;5592;49.234;7.268;2023-06-22T09:04:00;36.70;99.90
11079;DHT22;5592;49.234;7.268;2023-06-22T09:06:29;35.70;99.90
11079;DHT22;5592;49.234;7.268;2023-06-22T09:08:56;34.90;99.90
11079;DHT22;5592;49.234;7.268;2023-06-22T09:11:26;33.90;99.90
11079;DHT22;5592;49.234;7.268;2023-06-22T09:13:51;33.60;99.90
11079;DHT22;5592;49.234;7.268;2023-06-22T09:16:20;33.00;99.90
11079;DHT22;5592;49.234;7.268;2023-06-22T09:18:48;32.90;99.90
11079;DHT22;5592;49.234;7.268;2023-06-22T09:21:14;34.10;99.90
11079;DHT22;5592;49.234;7.268;2023-06-22T09:23:40;34.70;99.90
11079;DHT22;5592;49.234;7.268;2023-06-22T09:26:05;35.30;99.90
11079;DHT22;5592;49.234;7.268;2023-06-22T09:28:31;36.00;99.90
11079;DHT22;5592;49.234;7.268;2023-06-22T09:30:56;36.50;99.90
11079;DHT22;5592;49.234;7.268;2023-06-22T09:33:24;36.20;99.90
11079;DHT22;5592;49.234;7.268;2023-06-22T09:35:50;36.70;99.90
11079;DHT22;5592;49.234;7.268;2023-06-22T09:38:16;37.20;99.90
11079;DHT22;5592;49.234;7.268;2023-06-22T09:40:42;36.80;99.90
11079;DHT22;5592;49.234;7.268;2023-06-22T09:43:08;36.30;99.90
11079;DHT22;5592;49.234;7.268;2023-06-22T09:45:34;36.10;99.90
11079;DHT22;5592;49.234;7.268;2023-06-22T09:48:01;36.70;99.90
11079;DHT22;5592;49.234;7.268;2023-06-22T09:50:27;37.40;99.90
11079;DHT22;5592;49.234;7.268;2023-06-22T09:52:52;37.10;99.90
11079;DHT22;5592;49.234;7.268;2023-06-22T09:55:21;37.40;99.00
11079;DHT22;5592;49.234;7.268;2023-06-22T09:57:46;37.40;99.40
11079;DHT22;5592;49.234;7.268;2023-06-22T10:00:13;37.20;99.00
11079;DHT22;5592;49.234;7.268;2023-06-22T10:02:39;37.10;99.90
11079;DHT22;5592;49.234;7.268;2023-06-22T10:05:05;38.00;98.30
11079;DHT22;5592;49.234;7.268;2023-06-22T10:07:31;38.60;98.80
11079;DHT22;5592;49.234;7.268;2023-06-22T10:09:56;38.90;98.20
11079;DHT22;5592;49.234;7.268;2023-06-22T10:12:22;39.60;97.30
11079;DHT22;5592;49.234;7.268;2023-06-22T10:14:48;39.50;96.30
11079;DHT22;5592;49.234;7.268;2023-06-22T10:17:15;39.50;95.70
11079;DHT22;5592;49.234;7.268;2023-06-22T10:19:40;39.00;96.70
11079;DHT22;5592;49.234;7.268;2023-06-22T10:22:07;39.20;95.60
11079;DHT22;5592;49.234;7.268;2023-06-22T10:24:32;39.40;95.60
11079;DHT22;5592;49.234;7.268;2023-06-22T10:26:58;38.30;96.40
11079;DHT22;5592;49.234;7.268;2023-06-22T10:29:23;37.70;98.00
11079;DHT22;5592;49.234;7.268;2023-06-22T10:31:49;37.80;97.30
11079;DHT22;5592;49.234;7.268;2023-06-22T10:34:14;37.60;97.50
11079;DHT22;5592;49.234;7.268;2023-06-22T10:36:41;37.80;97.50
11079;DHT22;5592;49.234;7.268;2023-06-22T10:39:07;38.10;97.80
11079;DHT22;5592;49.234;7.268;2023-06-22T10:41:33;38.50;97.60
11079;DHT22;5592;49.234;7.268;2023-06-22T10:43:58;37.90;96.30
11079;DHT22;5592;49.234;7.268;2023-06-22T10:46:25;38.10;96.60
11079;DHT22;5592;49.234;7.268;2023-06-22T10:48:53;37.80;95.60
11079;DHT22;5592;49.234;7.268;2023-06-22T10:51:24;38.30;95.50
11079;DHT22;5592;49.234;7.268;2023-06-22T10:53:52;38.80;96.20
11079;DHT22;5592;49.234;7.268;2023-06-22T10:56:18;39.30;93.30
11079;DHT22;5592;49.234;7.268;2023-06-22T10:58:44;38.80;94.70
11079;DHT22;5592;49.234;7.268;2023-06-22T11:01:10;38.60;94.10
11079;DHT22;5592;49.234;7.268;2023-06-22T11:03:35;38.80;95.20
11079;DHT22;5592;49.234;7.268;2023-06-22T11:06:01;38.80;93.20
11079;DHT22;5592;49.234;7.268;2023-06-22T11:08:26;38.60;93.30
11079;DHT22;5592;49.234;7.268;2023-06-22T11:10:52;37.00;94.20
11079;DHT22;5592;49.234;7.268;2023-06-22T11:13:18;37.30;94.30
11079;DHT22;5592;49.234;7.268;2023-06-22T11:15:44;36.90;93.80
11079;DHT22;5592;49.234;7.268;2023-06-22T11:18:09;36.40;94.10
11079;DHT22;5592;49.234;7.268;2023-06-22T11:20:35;36.10;95.10
11079;DHT22;5592;49.234;7.268;2023-06-22T11:23:04;35.50;94.70
11079;DHT22;5592;49.234;7.268;2023-06-22T11:25:31;34.50;96.60
11079;DHT22;5592;49.234;7.268;2023-06-22T11:27:56;33.80;97.00
11079;DHT22;5592;49.234;7.268;2023-06-22T11:30:22;33.70;97.70
11079;DHT22;5592;49.234;7.268;2023-06-22T11:32:48;34.00;97.90
11079;DHT22;5592;49.234;7.268;2023-06-22T11:35:14;34.40;97.80
11079;DHT22;5592;49.234;7.268;2023-06-22T11:37:39;34.20;95.80
11079;DHT22;5592;49.234;7.268;2023-06-22T11:40:05;34.10;98.10
11079;DHT22;5592;49.234;7.268;2023-06-22T11:42:34;34.20;97.70
11079;DHT22;5592;49.234;7.268;2023-06-22T11:44:59;34.40;97.70
11079;DHT22;5592;49.234;7.268;2023-06-22T11:47:25;34.50;98.20
11079;DHT22;5592;49.234;7.268;2023-06-22T11:49:51;34.70;97.40
11079;DHT22;5592;49.234;7.268;2023-06-22T11:52:16;34.10;97.20
11079;DHT22;5592;49.234;7.268;2023-06-22T11:54:43;34.00;98.10
11079;DHT22;5592;49.234;7.268;2023-06-22T11:57:08;34.00;97.90
11079;DHT22;5592;49.234;7.268;2023-06-22T11:59:34;33.50;99.20
11079;DHT22;5592;49.234;7.268;2023-06-22T12:02:00;33.50;99.90
11079;DHT22;5592;49.234;7.268;2023-06-22T12:04:25;33.40;99.90
11079;DHT22;5592;49.234;7.268;2023-06-22T12:06:51;33.50;99.90
11079;DHT22;5592;49.234;7.268;2023-06-22T12:09:16;33.40;99.80
11079;DHT22;5592;49.234;7.268;2023-06-22T12:11:42;33.20;99.90
11079;DHT22;5592;49.234;7.268;2023-06-22T12:14:07;33.10;99.90
11079;DHT22;5592;49.234;7.268;2023-06-22T12:16:33;33.30;99.90
11079;DHT22;5592;49.234;7.268;2023-06-22T12:18:58;33.40;99.80
11079;DHT22;5592;49.234;7.268;2023-06-22T12:21:24;33.10;99.60
11079;DHT22;5592;49.234;7.268;2023-06-22T12:29:01;32.60;99.90
11079;DHT22;5592;49.234;7.268;2023-06-22T12:31:27;32.80;99.90
11079;DHT22;5592;49.234;7.268;2023-06-22T12:33:53;33.30;99.90
11079;DHT22;5592;49.234;7.268;2023-06-22T12:36:18;33.60;99.90
11079;DHT22;5592;49.234;7.268;2023-06-22T12:38:44;33.90;99.90
11079;DHT22;5592;49.234;7.268;2023-06-22T12:41:09;33.80;99.90
11079;DHT22;5592;49.234;7.268;2023-06-22T12:43:35;33.90;99.90
11079;DHT22;5592;49.234;7.268;2023-06-22T12:46:01;33.90;98.50
11079;DHT22;5592;49.234;7.268;2023-06-22T12:48:27;33.80;98.90
11079;DHT22;5592;49.234;7.268;2023-06-22T12:50:53;33.50;98.50
11079;DHT22;5592;49.234;7.268;2023-06-22T12:53:18;33.40;99.40
11079;DHT22;5592;49.234;7.268;2023-06-22T12:55:44;32.60;99.20
11079;DHT22;5592;49.234;7.268;2023-06-22T12:58:10;32.50;99.90
11079;DHT22;5592;49.234;7.268;2023-06-22T13:00:35;32.80;99.90
11079;DHT22;5592;49.234;7.268;2023-06-22T13:03:01;32.90;97.40
11079;DHT22;5592;49.234;7.268;2023-06-22T13:05:27;32.90;96.10
11079;DHT22;5592;49.234;7.268;2023-06-22T13:07:52;33.00;95.50
11079;DHT22;5592;49.234;7.268;2023-06-22T13:10:18;33.20;96.50
11079;DHT22;5592;49.234;7.268;2023-06-22T13:12:43;33.30;95.70
11079;DHT22;5592;49.234;7.268;2023-06-22T13:15:09;33.20;95.20
11079;DHT22;5592;49.234;7.268;2023-06-22T13:17:35;33.10;95.80
11079;DHT22;5592;49.234;7.268;2023-06-22T13:20:00;33.00;95.60
11079;DHT22;5592;49.234;7.268;2023-06-22T13:22:34;33.00;95.30
11079;DHT22;5592;49.234;7.268;2023-06-22T13:25:05;32.80;95.10
11079;DHT22;5592;49.234;7.268;2023-06-22T13:27:31;32.70;96.30
11079;DHT22;5592;49.234;7.268;2023-06-22T13:29:57;32.70;95.80
11079;DHT22;5592;49.234;7.268;2023-06-22T13:32:22;32.60;96.80
11079;DHT22;5592;49.234;7.268;2023-06-22T13:34:48;32.50;95.80
11079;DHT22;5592;49.234;7.268;2023-06-22T13:37:14;32.30;96.20
11079;DHT22;5592;49.234;7.268;2023-06-22T13:39:39;32.30;97.10
11079;DHT22;5592;49.234;7.268;2023-06-22T13:42:05;32.50;96.80
11079;DHT22;5592;49.234;7.268;2023-06-22T13:44:31;32.10;96.70
11079;DHT22;5592;49.234;7.268;2023-06-22T13:46:57;32.00;97.40
11079;DHT22;5592;49.234;7.268;2023-06-22T13:49:22;31.70;97.40
11079;DHT22;5592;49.234;7.268;2023-06-22T13:51:48;31.60;97.40
11079;DHT22;5592;49.234;7.268;2023-06-22T13:54:14;31.50;97.40
11079;DHT22;5592;49.234;7.268;2023-06-22T13:56:40;31.40;97.90
11079;DHT22;5592;49.234;7.268;2023-06-22T13:59:06;31.50;97.50
11079;DHT22;5592;49.234;7.268;2023-06-22T14:01:34;31.70;97.40
11079;DHT22;5592;49.234;7.268;2023-06-22T14:04:00;31.60;95.30
11079;DHT22;5592;49.234;7.268;2023-06-22T14:06:29;31.40;94.40
11079;DHT22;5592;49.234;7.268;2023-06-22T14:08:54;31.20;95.00
11079;DHT22;5592;49.234;7.268;2023-06-22T14:11:20;31.40;95.60
11079;DHT22;5592;49.234;7.268;2023-06-22T14:13:45;31.40;95.90
11079;DHT22;5592;49.234;7.268;2023-06-22T14:16:11;31.60;96.20
11079;DHT22;5592;49.234;7.268;2023-06-22T14:18:37;31.50;96.30
11079;DHT22;5592;49.234;7.268;2023-06-22T14:21:03;31.40;96.70
11079;DHT22;5592;49.234;7.268;2023-06-22T14:23:31;31.10;96.80
11079;DHT22;5592;49.234;7.268;2023-06-22T14:25:57;31.20;97.20
11079;DHT22;5592;49.234;7.268;2023-06-22T14:28:22;31.10;96.90
11079;DHT22;5592;49.234;7.268;2023-06-22T14:30:48;30.80;95.90
11079;DHT22;5592;49.234;7.268;2023-06-22T14:33:14;30.60;94.50
11079;DHT22;5592;49.234;7.268;2023-06-22T14:35:39;30.50;93.20
11079;DHT22;5592;49.234;7.268;2023-06-22T14:38:06;30.50;94.30
11079;DHT22;5592;49.234;7.268;2023-06-22T14:40:31;30.50;93.80
11079;DHT22;5592;49.234;7.268;2023-06-22T14:42:57;30.20;93.90
11079;DHT22;5592;49.234;7.268;2023-06-22T14:45:23;30.10;94.20
11079;DHT22;5592;49.234;7.268;2023-06-22T14:47:49;30.10;94.10
11079;DHT22;5592;49.234;7.268;2023-06-22T14:50:14;29.90;93.20
11079;DHT22;5592;49.234;7.268;2023-06-22T14:52:40;29.70;93.70
11079;DHT22;5592;49.234;7.268;2023-06-22T14:55:06;29.50;93.90
11079;DHT22;5592;49.234;7.268;2023-06-22T14:57:32;29.40;94.30
11079;DHT22;5592;49.234;7.268;2023-06-22T14:59:58;29.30;94.40
11079;DHT22;5592;49.234;7.268;2023-06-22T15:02:23;29.30;94.00
11079;DHT22;5592;49.234;7.268;2023-06-22T15:04:49;29.40;94.50
11079;DHT22;5592;49.234;7.268;2023-06-22T15:07:15;29.30;93.20
11079;DHT22;5592;49.234;7.268;2023-06-22T15:09:40;29.20;93.40
11079;DHT22;5592;49.234;7.268;2023-06-22T15:12:08;29.30;93.30
11079;DHT22;5592;49.234;7.268;2023-06-22T15:14:39;29.30;93.40
11079;DHT22;5592;49.234;7.268;2023-06-22T15:17:06;29.30;93.70
11079;DHT22;5592;49.234;7.268;2023-06-22T15:19:31;29.20;93.40
11079;DHT22;5592;49.234;7.268;2023-06-22T15:21:57;29.20;94.10
11079;DHT22;5592;49.234;7.268;2023-06-22T15:24:22;29.10;93.70
11079;DHT22;5592;49.234;7.268;2023-06-22T15:26:48;29.00;94.60
11079;DHT22;5592;49.234;7.268;2023-06-22T15:29:13;29.00;94.60
11079;DHT22;5592;49.234;7.268;2023-06-22T15:31:39;29.10;94.40
11079;DHT22;5592;49.234;7.268;2023-06-22T15:34:06;29.00;94.20
11079;DHT22;5592;49.234;7.268;2023-06-22T15:36:31;28.90;94.20
11079;DHT22;5592;49.234;7.268;2023-06-22T15:38:57;28.70;94.40
11079;DHT22;5592;49.234;7.268;2023-06-22T15:41:23;28.40;94.30
11079;DHT22;5592;49.234;7.268;2023-06-22T15:43:48;28.30;94.80
11079;DHT22;5592;49.234;7.268;2023-06-22T15:46:14;28.30;95.20
11079;DHT22;5592;49.234;7.268;2023-06-22T15:48:43;28.10;95.70
11079;DHT22;5592;49.234;7.268;2023-06-22T15:51:08;28.00;95.60
11079;DHT22;5592;49.234;7.268;2023-06-22T15:53:34;27.90;95.80